Time;durP1;ratioP1;P1;durP2;ratioP2;P2;SDS_P1;SDS_P2;PMS_P1;PMS_P2;Temp;Humidity;BMP_temperature;BMP_pressure;BME280_temperature;BME280_humidity;BME280_pressure;Samples;Min_cycle;Max_cycle;Signal;HPM_P1;HPM_P2
2022/12/15 00:38:44;;;;;;;26.27;12.98;;;;;;;-4.20;100.00;100579.41;2615427;36;20439;-51
2022/12/15 00:41:13;;;;;;;27.75;12.82;;;;;;;-4.20;100.00;100576.78;2614494;36;20122;-56
2022/12/15 00:43:45;;;;;;;28.58;14.02;;;;;;;-4.05;100.00;100580.66;2615711;31;20042;-52
2022/12/15 00:48:54;;;;;;;26.60;13.88;;;;;;;-4.23;100.00;100580.34;2614811;36;20038;-49
2022/12/15 00:51:20;;;;;;;28.08;13.65;;;;;;;-4.18;100.00;100581.97;2615724;36;20567;-54
2022/12/15 01:20:47;;;;;;;28.88;13.65;;;;;;;-4.09;100.00;100594.84;2614685;31;20037;-51
2022/12/15 01:23:15;;;;;;;28.15;14.15;;;;;;;-4.18;100.00;100588.13;2614001;36;20423;-49
2022/12/15 01:25:43;;;;;;;25.92;13.68;;;;;;;-4.30;100.00;100592.00;2614928;36;20099;-52
2022/12/15 01:28:12;;;;;;;27.73;14.05;;;;;;;-4.29;100.00;100606.81;2614410;31;20031;-54
2022/12/15 01:30:43;;;;;;;27.83;13.65;;;;;;;-4.30;100.00;100605.13;2614972;36;20038;-49
2022/12/15 01:33:11;;;;;;;29.42;13.32;;;;;;;-4.38;100.00;100614.16;2613606;36;20026;-50
2022/12/15 01:35:40;;;;;;;28.00;14.02;;;;;;;-4.40;100.00;100617.69;2612872;36;20042;-51
2022/12/15 01:38:08;;;;;;;30.15;15.38;;;;;;;-4.43;100.00;100622.16;2612708;36;20034;-54
2022/12/15 01:40:44;;;;;;;22.42;12.75;;;;;;;-4.40;100.00;100619.47;2615712;36;20443;-49
2022/12/15 01:43:15;;;;;;;28.10;14.13;;;;;;;-4.22;100.00;100626.75;2614484;36;20069;-51
2022/12/15 01:45:56;;;;;;;27.45;14.25;;;;;;;-4.19;100.00;100630.22;2615645;31;20034;-52
2022/12/15 01:48:41;;;;;;;29.95;13.60;;;;;;;-4.19;100.00;100633.69;2612694;36;20026;-52
2022/12/15 01:51:30;;;;;;;27.92;13.68;;;;;;;-4.40;100.00;100628.19;2613886;36;20061;-52
2022/12/15 01:54:05;;;;;;;31.75;15.32;;;;;;;-4.44;100.00;100630.97;2613072;36;20559;-51
2022/12/15 01:56:38;;;;;;;25.77;14.05;;;;;;;-4.34;100.00;100634.16;2613396;31;20087;-52
2022/12/15 01:59:09;;;;;;;28.65;14.32;;;;;;;-4.27;100.00;100638.31;2615433;31;20034;-53
2022/12/15 02:06:39;;;;;;;27.80;14.63;;;;;;;-4.33;100.00;100634.09;2613087;36;20488;-51
2022/12/15 02:12:04;;;;;;;30.27;13.70;;;;;;;-4.42;100.00;100642.28;2616582;36;20439;-51
2022/12/15 02:14:47;;;;;;;29.20;14.35;;;;;;;-4.44;100.00;100642.31;2614841;31;20042;-50
2022/12/15 02:17:24;;;;;;;29.05;15.60;;;;;;;-4.41;100.00;100644.00;2615564;36;20447;-52
2022/12/15 02:22:52;;;;;;;33.42;14.80;;;;;;;-4.26;100.00;100650.56;2613948;36;20038;-52
2022/12/15 02:28:08;;;;;;;26.60;15.77;;;;;;;-4.25;100.00;100657.53;2624466;36;20069;-52
2022/12/15 02:33:31;;;;;;;32.15;16.30;;;;;;;-4.24;100.00;100649.59;2613926;54;20042;-49
2022/12/15 02:36:10;;;;;;;30.70;14.90;;;;;;;-4.21;100.00;100640.78;2615954;36;20038;-51
2022/12/15 02:38:40;;;;;;;;;;;;;;;-4.23;100.00;100642.56;2619138;36;20045;-52
2022/12/15 02:43:51;;;;;;;28.83;16.10;;;;;;;-4.16;100.00;100645.88;2613651;36;20049;-50
2022/12/15 02:49:06;;;;;;;31.45;16.85;;;;;;;-4.13;100.00;100651.88;2612965;36;20038;-50
2022/12/15 02:52:01;;;;;;;32.45;15.90;;;;;;;-4.06;100.00;100658.69;2614275;31;20133;-52
2022/12/15 03:02:33;;;;;;;28.00;14.88;;;;;;;-4.05;100.00;100664.78;2613744;54;20073;-53
2022/12/15 03:10:21;;;;;;;30.80;15.48;;;;;;;-4.08;100.00;100662.25;2612740;54;20026;31
2022/12/15 03:18:02;;;;;;;32.42;15.65;;;;;;;-4.06;100.00;100663.94;2613534;36;20042;-51
2022/12/15 03:20:31;;;;;;;33.08;15.80;;;;;;;-4.04;100.00;100658.63;2614892;36;20144;-54
2022/12/15 03:23:00;;;;;;;28.85;15.45;;;;;;;-4.05;100.00;100662.16;2615136;31;20023;-53
2022/12/15 03:25:31;;;;;;;;;;;;;;;-3.99;100.00;100663.75;2614622;36;20085;-52
2022/12/15 03:41:10;;;;;;;33.55;16.50;;;;;;;-4.12;100.00;100673.75;2612593;54;20038;-53
2022/12/15 03:54:09;;;;;;;28.90;14.73;;;;;;;-4.06;100.00;100681.50;2613435;31;20043;-51
2022/12/15 04:16:52;;;;;;;28.63;14.68;;;;;;;-3.88;100.00;100664.28;2617496;36;20150;-53
2022/12/15 05:40:36;;;;;;;37.22;19.55;;;;;;;-3.87;100.00;100706.28;2615232;36;20553;-51
2022/12/15 05:50:36;;;;;;;35.50;19.17;;;;;;;-3.77;100.00;100724.41;2612634;31;20544;-53
2022/12/15 05:53:05;;;;;;;39.65;18.55;;;;;;;-3.70;100.00;100725.94;2614429;36;20042;-52
2022/12/15 05:58:09;;;;;;;37.55;18.38;;;;;;;-3.72;100.00;100717.25;2616308;36;20125;-52
2022/12/15 06:00:38;;;;;;;37.25;18.77;;;;;;;-3.64;100.00;100724.88;2611856;36;20034;-54
2022/12/15 06:03:06;;;;;;;35.13;17.25;;;;;;;-3.62;100.00;100723.94;2612210;36;20034;-54
2022/12/15 06:10:45;;;;;;;39.85;18.75;;;;;;;-3.47;100.00;100719.09;2613308;54;20030;-55
2022/12/15 06:20:39;;;;;;;36.45;18.40;;;;;;;-3.53;100.00;100735.94;2611506;36;20302;-51
2022/12/15 06:30:42;;;;;;;38.85;19.27;;;;;;;-3.55;100.00;100738.63;2610263;36;20173;-55
2022/12/15 06:45:58;;;;;;;36.60;19.08;;;;;;;-3.54;100.00;100739.47;2612840;39;20653;-54
2022/12/15 06:56:05;;;;;;;38.90;19.50;;;;;;;-3.61;100.00;100744.03;2613400;39;20447;-53
2022/12/15 06:58:33;;;;;;;40.97;18.45;;;;;;;-3.62;100.00;100749.34;2615089;36;20023;-54
2022/12/15 07:01:07;;;;;;;39.58;19.35;;;;;;;-3.74;100.00;100746.22;2615447;31;20029;-53
2022/12/15 07:03:37;;;;;;;34.53;17.77;;;;;;;-3.67;100.00;100753.91;2613784;31;20030;-52
2022/12/15 07:06:08;;;;;;;35.75;17.13;;;;;;;-3.58;100.00;100754.50;2616091;36;20045;-51
2022/12/15 07:08:36;;;;;;;38.63;20.25;;;;;;;-3.63;100.00;100750.28;2615555;36;20037;-53
2022/12/15 07:11:09;;;;;;;35.00;17.13;;;;;;;-3.64;100.00;100759.94;2615431;36;20641;-50
2022/12/15 07:21:10;;;;;;;36.17;18.15;;;;;;;-3.72;100.00;100756.69;2614567;36;20022;-50
2022/12/15 07:23:39;;;;;;;37.58;17.92;;;;;;;-3.74;100.00;100758.50;2614453;36;20108;-50
2022/12/15 07:26:11;;;;;;;35.40;18.77;;;;;;;-3.62;100.00;100758.13;2614720;36;20031;-50
2022/12/15 07:28:40;;;;;;;43.72;18.80;;;;;;;-3.64;100.00;100753.81;2615079;31;20034;-50
2022/12/15 07:31:10;;;;;;;;;;;;;;;-3.52;100.00;100758.69;2616381;36;20049;-53
2022/12/15 07:33:39;;;;;;;36.47;18.52;;;;;;;-3.59;100.00;100758.03;2614374;36;19946;-52
2022/12/15 07:36:09;;;;;;;38.40;19.55;;;;;;;-3.62;100.00;100762.50;2615424;31;20030;-51
2022/12/15 07:38:37;;;;;;;;;;;;;;;-3.59;100.00;100762.41;2613050;31;20042;-51
2022/12/15 07:48:50;;;;;;;35.13;18.65;;;;;;;-3.61;100.00;100764.25;2612554;36;20438;-52
2022/12/15 07:58:56;;;;;;;35.65;17.75;;;;;;;-3.44;100.00;100784.75;2617407;31;20562;-56
2022/12/15 08:16:21;;;;;;;37.83;19.13;;;;;;;-3.30;100.00;100787.78;2612824;36;20350;-53
2022/12/15 08:26:16;;;;;;;38.13;20.38;;;;;;;-3.06;100.00;100806.31;2613667;36;20311;-53
2022/12/15 08:28:46;;;;;;;40.45;20.23;;;;;;;-3.07;100.00;100809.91;2612440;36;20034;-55
2022/12/15 08:31:16;;;;;;;30.73;18.52;;;;;;;-2.94;100.00;100803.31;2613728;31;20034;-56
2022/12/15 08:41:12;;;;;;;35.83;19.30;;;;;;;-2.82;100.00;100804.66;2612436;36;20049;-53
2022/12/15 08:51:05;;;;;;;38.15;19.40;;;;;;;-2.59;100.00;100801.25;2611028;46;20054;-55
2022/12/15 08:53:33;;;;;;;37.17;19.73;;;;;;;-2.50;100.00;100811.47;2610091;36;20027;-53
2022/12/15 09:03:32;;;;;;;40.80;20.95;;;;;;;-2.30;100.00;100821.31;2613332;54;20042;-54
2022/12/15 09:28:51;;;;;;;50.90;22.15;;;;;;;-1.29;100.00;100825.44;2612761;54;20819;-57
2022/12/15 09:31:23;;;;;;;42.92;20.02;;;;;;;-1.22;100.00;100829.56;2614923;36;20031;-57
2022/12/15 09:33:53;;;;;;;42.45;20.83;;;;;;;-1.08;100.00;100832.47;2614687;36;20061;-52
2022/12/15 09:36:21;;;;;;;42.58;21.88;;;;;;;-1.12;100.00;100833.56;2614456;31;20563;-55
2022/12/15 09:54:34;;;;;;;38.30;20.48;;;;;;;-1.12;100.00;100849.41;2616939;36;20291;-56
2022/12/15 09:57:12;;;;;;;34.22;19.42;;;;;;;-1.03;100.00;100842.88;2614921;36;20034;-53
2022/12/15 09:59:46;;;;;;;33.25;19.38;;;;;;;-0.97;100.00;100847.03;2610534;36;20030;-51
2022/12/15 10:02:46;;;;;;;36.55;18.08;;;;;;;-0.98;100.00;100853.25;2614399;36;20034;-56
2022/12/15 10:20:20;;;;;;;34.88;19.33;;;;;;;-0.17;100.00;100854.25;2614059;54;20122;-55
2022/12/15 10:30:36;;;;;;;31.85;17.52;;;;;;;-0.04;100.00;100846.63;2618576;36;20455;-51
2022/12/15 10:33:13;;;;;;;36.05;17.55;;;;;;;-0.22;100.00;100843.88;2614712;36;20046;-55
2022/12/15 10:35:44;;;;;;;38.15;18.52;;;;;;;-0.06;100.00;100840.53;2614736;36;20034;-52
2022/12/15 10:38:25;;;;;;;32.95;17.30;;;;;;;0.19;100.00;100856.16;2612740;36;20045;-51
2022/12/15 10:48:21;;;;;;;29.90;17.15;;;;;;;0.46;100.00;100853.19;2612667;31;20348;-51
2022/12/15 10:51:15;;;;;;;33.40;17.83;;;;;;;0.66;100.00;100855.78;2615504;36;20554;-55
2022/12/15 10:53:46;;;;;;;28.80;16.00;;;;;;;0.70;100.00;100852.03;2613995;36;20042;-53
2022/12/15 11:01:28;;;;;;;33.90;18.17;;;;;;;0.79;100.00;100839.28;2612722;54;20130;-57
2022/12/15 11:03:57;;;;;;;34.33;17.17;;;;;;;0.83;100.00;100838.19;2615285;36;20050;-53
2022/12/15 11:06:30;;;;;;;29.63;17.25;;;;;;;0.75;100.00;100835.06;2615260;36;20035;-52
2022/12/15 11:17:01;;;;;;;28.08;16.67;;;;;;;1.25;100.00;100838.81;2612285;54;20061;-56
2022/12/15 11:50:13;;;;;;;26.90;14.45;;;;;;;1.85;100.00;100830.44;2613202;54;20042;-55
2022/12/15 12:29:14;;;;;;;25.45;14.65;;;;;;;2.09;100.00;100826.47;2613347;39;20479;-54
2022/12/15 12:31:53;;;;;;;29.52;15.02;;;;;;;2.12;100.00;100822.81;2613857;36;20141;-50
2022/12/15 12:50:32;;;;;;;26.63;15.82;;;;;;;2.23;100.00;100803.63;2612212;36;20035;-52
2022/12/15 12:53:04;;;;;;;29.77;15.00;;;;;;;2.24;100.00;100800.91;2614653;36;20045;-52
2022/12/15 12:55:41;;;;;;;24.48;14.82;;;;;;;2.01;100.00;100799.47;2615016;36;20539;-51
2022/12/15 13:03:19;;;;;;;27.35;15.05;;;;;;;1.82;100.00;100798.75;2612771;54;20033;31
2022/12/15 13:05:53;;;;;;;26.98;13.95;;;;;;;2.00;100.00;100802.22;2615373;36;20030;-52
2022/12/15 13:23:43;;;;;;;26.42;13.32;;;;;;;2.83;100.00;100788.78;2613053;54;20035;-52
2022/12/15 13:34:15;;;;;;;23.23;13.20;;;;;;;2.39;100.00;100777.94;2612521;54;20046;-52
2022/12/15 13:36:52;;;;;;;24.40;13.98;;;;;;;2.18;100.00;100771.16;2614470;36;20040;-51
2022/12/15 13:39:52;;;;;;;23.13;13.55;;;;;;;2.36;100.00;100780.78;2614916;36;20404;-54
2022/12/15 13:42:37;;;;;;;25.85;14.30;;;;;;;2.26;100.00;100776.91;2615490;31;20031;-53
2022/12/15 13:52:46;;;;;;;27.00;15.25;;;;;;;2.10;100.00;100782.19;2611923;54;20034;-53
2022/12/15 14:00:28;;;;;;;34.47;17.00;;;;;;;1.87;100.00;100776.34;2613282;54;20030;-55
2022/12/15 14:03:08;;;;;;;26.55;15.93;;;;;;;1.82;100.00;100765.09;2616702;36;20038;-56
2022/12/15 14:05:37;;;;;;;32.78;17.08;;;;;;;1.75;100.00;100771.66;2615621;36;20038;-55
2022/12/15 14:08:12;;;;;;;27.63;16.15;;;;;;;1.91;100.00;100766.41;2615653;36;20034;-55
2022/12/15 14:10:43;;;;;;;28.73;17.27;;;;;;;1.99;100.00;100769.50;2616462;31;20030;-54
2022/12/15 14:13:20;;;;;;;30.65;17.98;;;;;;;1.87;100.00;100770.16;2616181;54;20151;-57
2022/12/15 14:33:42;;;;;;;32.95;18.38;;;;;;;1.67;100.00;100761.47;2605951;36;21597;-56
2022/12/15 14:36:13;;;;;;;34.05;18.90;;;;;;;1.58;100.00;100754.84;2615802;36;20038;-55
2022/12/15 14:46:27;;;;;;;36.97;20.25;;;;;;;1.36;100.00;100744.53;2614087;36;20423;-57
2022/12/15 15:11:44;;;;;;;40.00;22.63;;;;;;;1.01;100.00;100744.53;2613556;39;20854;-57
2022/12/15 15:14:16;;;;;;;40.60;21.60;;;;;;;1.04;100.00;100738.22;2620008;36;20411;-57
2022/12/15 15:24:26;;;;;;;40.78;21.65;;;;;;;0.82;100.00;100734.00;2614416;36;20046;-55
2022/12/15 15:40:14;;;;;;;46.75;24.48;;;;;;;0.58;100.00;100738.72;2612155;36;20068;-56
2022/12/15 15:50:31;;;;;;;52.10;28.30;;;;;;;0.36;100.00;100730.13;2614078;36;20527;-55
2022/12/15 15:53:00;;;;;;;47.90;28.45;;;;;;;0.29;100.00;100732.19;2615665;36;20570;-54
2022/12/15 15:55:32;;;;;;;53.17;30.42;;;;;;;0.33;100.00;100737.25;2615365;36;20605;-54
2022/12/15 15:58:00;;;;;;;53.72;29.55;;;;;;;0.21;100.00;100740.50;2614786;36;20132;-55
2022/12/15 16:00:28;;;;;;;52.65;29.15;;;;;;;0.10;100.00;100738.34;2614019;36;20034;-54
2022/12/15 16:02:57;;;;;;;52.97;28.75;;;;;;;0.10;100.00;100741.00;2614027;36;20030;-53
2022/12/15 16:05:28;;;;;;;57.45;29.30;;;;;;;-0.03;100.00;100740.72;2614573;36;20034;-56
2022/12/15 16:07:56;;;;;;;57.28;28.40;;;;;;;0.00;100.00;100752.97;2612974;36;20046;-53
2022/12/15 16:15:33;;;;;;;49.50;29.60;;;;;;;0.07;100.00;100756.16;2612629;47;20031;-55
2022/12/15 16:18:01;;;;;;;53.25;30.00;;;;;;;0.09;100.00;100749.88;2610671;36;20310;-56
2022/12/15 16:20:32;;;;;;;51.67;28.80;;;;;;;0.06;100.00;100757.09;2613954;36;20058;-55
2022/12/15 16:23:09;;;;;;;51.13;29.35;;;;;;;0.12;100.00;100754.19;2615413;47;20041;-55
2022/12/15 16:25:40;;;;;;;54.03;30.60;;;;;;;-0.05;100.00;100760.25;2614789;36;20034;-55
2022/12/15 16:28:13;;;;;;;55.50;30.67;;;;;;;-0.01;100.00;100749.44;2614454;31;20042;-57
2022/12/15 16:30:42;;;;;;;65.60;32.33;;;;;;;-0.04;100.00;100754.03;2612811;36;20049;-56
2022/12/15 16:33:12;;;;;;;54.47;29.77;;;;;;;-0.09;100.00;100759.53;2614283;36;20035;-57
2022/12/15 16:35:44;;;;;;;53.03;31.65;;;;;;;-0.05;100.00;100762.88;2614704;36;20034;-57
2022/12/15 16:38:17;;;;;;;52.47;30.00;;;;;;;-0.08;100.00;100758.59;2613839;36;20042;-56
2022/12/15 16:40:45;;;;;;;60.03;31.95;;;;;;;-0.11;100.00;100760.53;2614809;36;20041;-56
2022/12/15 16:43:18;;;;;;;62.70;30.60;;;;;;;-0.14;100.00;100758.03;2614712;31;20140;-55
2022/12/15 16:45:49;;;;;;;58.22;30.08;;;;;;;-0.10;100.00;100751.69;2614268;36;20034;-55
2022/12/15 16:48:18;;;;;;;58.10;31.13;;;;;;;-0.21;100.00;100746.84;2613685;36;20073;-56
2022/12/15 16:50:53;;;;;;;59.00;31.60;;;;;;;-0.20;100.00;100738.00;2615260;36;20029;-53
2022/12/15 16:53:24;;;;;;;62.88;32.40;;;;;;;-0.13;100.00;100744.72;2614795;36;20038;-57
2022/12/15 16:55:55;;;;;;;60.42;31.45;;;;;;;-0.18;100.00;100757.28;2614553;36;20041;-55
2022/12/15 16:58:25;;;;;;;61.47;33.40;;;;;;;-0.27;100.00;100752.44;2614553;36;20515;-54
2022/12/15 17:00:53;;;;;;;54.03;31.35;;;;;;;-0.24;100.00;100749.63;2613863;36;20038;-57
2022/12/15 17:03:24;;;;;;;56.28;30.33;;;;;;;-0.20;100.00;100753.88;2613906;31;20042;-55
2022/12/15 17:05:59;;;;;;;63.65;33.95;;;;;;;-0.28;100.00;100745.41;2612808;36;20030;-58
2022/12/15 17:08:33;;;;;;;67.07;33.30;;;;;;;-0.22;100.00;100745.13;2613408;36;20043;-55
2022/12/15 17:11:01;;;;;;;64.85;33.45;;;;;;;-0.06;100.00;100754.09;2613375;36;20038;-56
2022/12/15 17:13:34;;;;;;;59.27;33.37;;;;;;;-0.10;100.00;100749.88;2614849;36;20031;-55
2022/12/15 17:16:03;;;;;;;60.45;32.08;;;;;;;-0.02;100.00;100750.38;2613939;36;20053;-56
2022/12/15 17:18:31;;;;;;;63.38;33.67;;;;;;;-0.10;100.00;100755.16;2614222;36;20566;-55
2022/12/15 17:21:06;;;;;;;59.53;32.55;;;;;;;-0.17;100.00;100761.66;2614155;36;20038;-56
2022/12/15 17:23:36;;;;;;;54.03;31.63;;;;;;;-0.10;100.00;100754.31;2616153;31;20035;-55
2022/12/15 17:26:04;;;;;;;58.35;31.95;;;;;;;-0.04;100.00;100762.81;2614671;36;20637;-56
2022/12/15 17:28:35;;;;;;;55.63;31.73;;;;;;;0.01;100.00;100767.03;2615767;36;20030;-56
2022/12/15 17:31:04;;;;;;;56.63;31.25;;;;;;;0.05;100.00;100768.63;2615470;31;20038;-57
2022/12/15 17:33:35;;;;;;;60.35;30.58;;;;;;;0.12;100.00;100767.41;2614807;36;20053;-55
2022/12/15 17:36:16;;;;;;;54.80;30.98;;;;;;;0.32;100.00;100769.97;2615510;36;20554;-54
2022/12/15 17:38:45;;;;;;;64.55;36.45;;;;;;;0.39;100.00;100772.34;2614764;36;20023;-57
2022/12/15 17:41:14;;;;;;;60.13;32.93;;;;;;;0.43;100.00;100774.75;2616013;36;20103;-56
2022/12/15 17:43:42;;;;;;;;;;;;;;;0.57;100.00;100776.72;2615860;36;20042;-55
2022/12/15 17:46:11;;;;;;;58.58;31.75;;;;;;;0.56;100.00;100779.44;2616053;31;19958;-54
2022/12/15 17:48:39;;;;;;;61.58;32.20;;;;;;;0.53;100.00;100785.78;2614447;36;20046;-54
2022/12/15 17:51:15;;;;;;;58.17;32.63;;;;;;;0.52;100.00;100781.41;2614801;36;20046;-55
2022/12/15 17:53:45;;;;;;;54.30;30.80;;;;;;;0.45;100.00;100772.03;2615767;31;20126;-57
2022/12/15 17:56:15;;;;;;;60.05;32.45;;;;;;;0.33;100.00;100770.84;2616136;31;20030;-56
2022/12/15 17:58:44;;;;;;;52.70;29.50;;;;;;;0.21;100.00;100774.03;2615268;36;20034;-55
2022/12/15 18:01:14;;;;;;;55.53;30.63;;;;;;;0.06;100.00;100775.63;2614845;36;20042;-56
2022/12/15 18:03:45;;;;;;;55.70;30.77;;;;;;;-0.04;100.00;100778.69;2614585;36;20041;-57
2022/12/15 18:06:17;;;;;;;49.75;29.83;;;;;;;0.03;100.00;100773.13;2615282;36;20030;-54
2022/12/15 18:08:47;;;;;;;55.05;30.45;;;;;;;-0.04;100.00;100781.34;2612820;36;20034;-55
2022/12/15 18:11:17;;;;;;;54.92;30.95;;;;;;;0.03;100.00;100781.06;2605177;36;20034;-54
2022/12/15 18:13:46;;;;;;;52.33;30.00;;;;;;;0.04;100.00;100785.44;2614484;36;20143;-54
2022/12/15 18:16:14;;;;;;;58.85;31.77;;;;;;;0.01;100.00;100790.84;2615482;31;20054;-54
2022/12/15 18:18:43;;;;;;;55.17;30.40;;;;;;;-0.06;100.00;100787.63;2615629;36;20018;-56
2022/12/15 18:21:18;;;;;;;56.92;29.17;;;;;;;-0.22;100.00;100792.75;2615222;36;20081;-55
2022/12/15 18:23:46;;;;;;;57.20;30.45;;;;;;;-0.22;100.00;100792.75;2614953;36;20351;-56
2022/12/15 18:26:15;;;;;;;57.10;32.10;;;;;;;-0.25;100.00;100790.22;2616290;31;20035;-54
2022/12/15 18:28:44;;;;;;;57.30;31.20;;;;;;;-0.30;100.00;100789.59;2615726;36;20033;-56
2022/12/15 18:31:20;;;;;;;61.15;33.42;;;;;;;-0.34;100.00;100798.59;2615182;36;20041;-54
2022/12/15 18:33:49;;;;;;;62.53;32.80;;;;;;;-0.26;100.00;100802.59;2615225;36;20038;-55
2022/12/15 18:36:21;;;;;;;63.00;33.00;;;;;;;-0.21;100.00;100799.75;2615460;36;20046;-54
2022/12/15 18:38:49;;;;;;;56.28;32.40;;;;;;;-0.22;100.00;100803.31;2614428;36;20038;-56
2022/12/15 18:41:20;;;;;;;59.33;32.65;;;;;;;-0.34;100.00;100803.88;2615015;36;20041;-56
2022/12/15 18:43:49;;;;;;;64.72;33.38;;;;;;;-0.33;100.00;100808.25;2615156;36;20048;-56
2022/12/15 18:46:19;;;;;;;61.83;33.83;;;;;;;-0.44;100.00;100804.28;2614405;36;21329;-51
2022/12/15 18:48:47;;;;;;;67.90;35.28;;;;;;;-0.45;100.00;100805.19;2615539;36;20551;-56
2022/12/15 18:51:18;;;;;;;62.07;35.13;;;;;;;-0.38;100.00;100813.75;2615572;36;20022;-51
2022/12/15 18:53:50;;;;;;;65.38;33.65;;;;;;;-0.40;100.00;100811.16;2614944;36;20029;-56
2022/12/15 18:56:20;;;;;;;72.60;35.35;;;;;;;-0.46;100.00;100814.06;2615022;36;20038;-55
2022/12/15 18:58:49;;;;;;;71.00;37.13;;;;;;;-0.50;100.00;100820.44;2616295;36;20439;-53
2022/12/15 19:01:17;;;;;;;61.35;34.15;;;;;;;-0.45;100.00;100812.28;2613142;36;20041;-54
2022/12/15 19:03:45;;;;;;;66.47;34.92;;;;;;;-0.50;100.00;100820.44;2614355;36;20034;-55
2022/12/15 19:06:22;;;;;;;74.93;36.72;;;;;;;-0.51;100.00;100816.06;2615081;36;20022;-56
2022/12/15 19:08:53;;;;;;;65.97;35.47;;;;;;;-0.48;100.00;100829.13;2608918;36;20031;-55
2022/12/15 19:11:29;;;;;;;66.10;34.63;;;;;;;-0.48;100.00;100810.63;2615668;36;20034;-53
2022/12/15 19:13:58;;;;;;;68.47;36.47;;;;;;;-0.48;100.00;100826.50;2616177;36;20030;-54
2022/12/15 19:22:25;;;;;;;71.55;34.88;;;;;;;-0.47;100.00;100829.97;2614532;36;20559;-55
2022/12/15 19:27:22;;;;;;;67.53;35.70;;;;;;;-0.22;100.00;100845.63;2607112;36;20054;-57
2022/12/15 19:29:52;;;;;;;70.57;37.30;;;;;;;-0.32;100.00;100839.03;2613731;36;20034;-55
2022/12/15 19:32:20;;;;;;;72.55;38.42;;;;;;;-0.21;100.00;100839.44;2614553;36;20034;-56
2022/12/15 19:34:48;;;;;;;72.88;38.20;;;;;;;-0.19;100.00;100848.19;2615099;36;20030;-54
2022/12/15 19:37:24;;;;;;;71.63;36.47;;;;;;;-0.12;100.00;100846.09;2613735;36;20725;-57
2022/12/15 19:39:56;;;;;;;73.63;37.92;;;;;;;-0.09;100.00;100846.84;2614738;36;20041;-56
2022/12/15 19:42:30;;;;;;;74.45;37.92;;;;;;;-0.05;100.00;100855.50;2615485;36;20031;-55
2022/12/15 19:45:00;;;;;;;69.20;38.00;;;;;;;-0.08;100.00;100847.69;2614750;36;20413;-55
2022/12/15 19:47:29;;;;;;;72.43;36.72;;;;;;;0.06;100.00;100844.41;2616688;31;20539;-53
2022/12/15 19:49:57;;;;;;;66.85;34.85;;;;;;;0.10;100.00;100840.72;2615888;36;20069;-52
2022/12/15 19:52:25;;;;;;;73.30;35.67;;;;;;;0.03;100.00;100844.56;2614820;36;20045;-57
2022/12/15 19:54:56;;;;;;;61.70;34.23;;;;;;;-0.04;100.00;100847.47;2616380;36;20471;-54
2022/12/15 19:57:25;;;;;;;64.15;35.20;;;;;;;0.02;100.00;100850.81;2616075;36;20048;-54
2022/12/15 19:59:53;;;;;;;62.35;34.28;;;;;;;-0.11;100.00;100853.97;2615527;36;20424;-53
2022/12/15 20:02:22;;;;;;;65.10;34.83;;;;;;;-0.10;100.00;100850.41;2615258;31;20023;-51
2022/12/15 20:04:51;;;;;;;70.75;35.65;;;;;;;-0.12;100.00;100856.69;2615560;36;20027;-51
2022/12/15 20:07:31;;;;;;;67.57;36.80;;;;;;;0.02;100.00;100861.38;2613725;36;20122;-54
2022/12/15 20:10:04;;;;;;;71.05;34.25;;;;;;;-0.02;100.00;100866.78;2615212;36;20035;-52
2022/12/15 20:12:32;;;;;;;63.72;34.08;;;;;;;-0.12;100.00;100854.03;2615589;36;20042;-55
2022/12/15 20:15:01;;;;;;;66.90;33.00;;;;;;;-0.12;100.00;100856.69;2614460;36;20045;-55
2022/12/15 20:17:29;;;;;;;61.80;34.90;;;;;;;0.11;100.00;100863.59;2614388;31;20034;-53
2022/12/15 20:19:58;;;;;;;63.33;34.40;;;;;;;0.21;100.00;100858.75;2615021;36;20034;-54
2022/12/15 20:22:26;;;;;;;63.08;33.15;;;;;;;0.03;100.00;100863.97;2615737;36;20629;-56
2022/12/15 20:27:37;;;;;;;69.57;33.53;;;;;;;-0.03;100.00;100873.03;2614918;36;20045;-54
2022/12/15 20:30:08;;;;;;;70.22;33.85;;;;;;;0.02;100.00;100869.31;2632148;36;20056;-52
2022/12/15 20:32:36;;;;;;;70.80;34.72;;;;;;;0.06;100.00;100874.41;2615470;31;20030;-53
2022/12/15 20:35:05;;;;;;;67.70;35.22;;;;;;;-0.02;100.00;100874.72;2612685;36;20038;-55
2022/12/15 20:37:34;;;;;;;64.20;34.13;;;;;;;0.02;100.00;100866.69;2613898;36;20030;-56
2022/12/15 20:40:02;;;;;;;58.33;32.67;;;;;;;0.16;100.00;100872.19;2608101;36;20034;-54
2022/12/15 20:42:31;;;;;;;62.70;33.97;;;;;;;0.17;100.00;100879.22;2615996;31;20299;-56
2022/12/15 20:45:01;;;;;;;62.78;33.65;;;;;;;0.10;100.00;100872.47;2615632;36;20029;-55
2022/12/15 20:47:30;;;;;;;66.63;34.92;;;;;;;0.07;100.00;100878.75;2614386;36;20563;-55
2022/12/15 20:49:58;;;;;;;61.33;33.33;;;;;;;0.23;100.00;100889.50;2614123;36;20034;-56
2022/12/15 20:52:28;;;;;;;66.43;34.92;;;;;;;0.28;100.00;100891.94;2615234;31;20034;-57
2022/12/15 20:54:57;;;;;;;62.92;35.30;;;;;;;0.33;100.00;100888.16;2615079;36;20034;-55
2022/12/15 20:57:25;;;;;;;64.18;33.80;;;;;;;0.10;100.00;100891.00;2613972;36;20030;-53
2022/12/15 20:59:54;;;;;;;75.80;34.83;;;;;;;0.23;100.00;100893.97;2615118;36;20030;-55
2022/12/15 21:02:27;;;;;;;63.97;33.15;;;;;;;0.36;100.00;100894.28;2612627;36;20042;-51
2022/12/15 21:04:55;;;;;;;65.00;34.35;;;;;;;0.36;100.00;100887.19;2614580;36;20034;-52
2022/12/15 21:07:24;;;;;;;69.18;34.40;;;;;;;0.46;100.00;100890.28;2614740;36;20088;-49
2022/12/15 21:09:52;;;;;;;62.25;33.47;;;;;;;0.43;100.00;100895.72;2615328;36;20026;-53
2022/12/15 21:12:23;;;;;;;64.40;34.78;;;;;;;0.49;100.00;100903.38;2615783;31;20443;-50
2022/12/15 21:14:52;;;;;;;68.05;34.60;;;;;;;0.53;100.00;100899.66;2615495;36;20034;-52
2022/12/15 21:17:22;;;;;;;70.93;35.42;;;;;;;0.69;100.00;100898.00;2614793;36;20022;-52
2022/12/15 21:19:54;;;;;;;71.45;34.85;;;;;;;0.45;100.00;100893.84;2615153;36;20423;-52
2022/12/15 21:22:25;;;;;;;61.35;32.78;;;;;;;0.22;100.00;100887.81;2614217;36;20030;-51
2022/12/15 21:24:59;;;;;;;65.32;36.08;;;;;;;0.26;100.00;100889.38;2614940;31;20022;-51
2022/12/15 21:27:27;;;;;;;71.15;35.42;;;;;;;0.15;100.00;100894.31;2614056;36;20030;-53
2022/12/15 21:29:55;;;;;;;68.30;36.08;;;;;;;0.09;100.00;100902.50;2615543;31;20109;-50
2022/12/15 21:32:24;;;;;;;69.20;34.75;;;;;;;0.28;100.00;100898.13;2614460;36;20042;-51
2022/12/15 21:34:55;;;;;;;65.90;36.58;;;;;;;0.22;100.00;100898.41;2614471;36;20037;-53
2022/12/15 21:37:28;;;;;;;74.35;36.45;;;;;;;0.25;100.00;100898.25;2614971;31;20053;-55
2022/12/15 21:39:58;;;;;;;71.50;37.30;;;;;;;0.29;100.00;100896.31;2614166;31;20037;-53
2022/12/15 21:42:29;;;;;;;63.38;35.78;;;;;;;0.11;100.00;100898.00;2614437;36;20034;-54
2022/12/15 21:44:57;;;;;;;76.13;38.60;;;;;;;0.23;100.00;100899.25;2614948;31;20631;-55
2022/12/15 21:49:13;;;;;;;67.93;36.38;;;;;;;0.28;100.00;100907.81;2614096;36;20026;-53
2022/12/15 21:50:16;;;;;;;71.22;36.78;;;;;;;0.29;100.00;100910.41;2613995;36;20578;-57
2022/12/15 21:52:45;;;;;;;;;;;;;;;0.30;100.00;100921.88;2615559;36;20468;-53
2022/12/15 21:55:18;;;;;;;62.72;35.78;;;;;;;0.39;100.00;100921.44;2614397;36;19950;-57
2022/12/15 21:57:47;;;;;;;63.42;34.83;;;;;;;0.47;100.00;100918.44;2613877;36;20042;-55
2022/12/15 22:00:19;;;;;;;70.00;34.25;;;;;;;0.29;100.00;100923.66;2613591;31;20023;-55
2022/12/15 22:02:50;;;;;;;61.72;32.22;;;;;;;0.17;100.00;100909.16;2614382;36;20022;-53
2022/12/15 22:05:23;;;;;;;63.50;33.42;;;;;;;0.17;100.00;100910.97;2610843;36;20034;-56
2022/12/15 22:07:52;;;;;;;62.50;34.10;;;;;;;0.18;100.00;100920.63;2607658;36;20030;-55
2022/12/15 22:10:21;;;;;;;69.45;35.88;;;;;;;0.25;100.00;100923.84;2613849;36;20041;-57
2022/12/15 22:12:52;;;;;;;62.92;33.28;;;;;;;0.06;100.00;100907.94;2610653;36;20038;-54
2022/12/15 22:15:23;;;;;;;56.05;33.15;;;;;;;-0.05;100.00;100917.19;2613081;36;20030;-57